Westminster, California
Current Conditions -  °F | °C
As of 10:58 AM on Monday 20 Oct 2014 (Local Time) from KSLI Reporting Station
Overcast Overcast  
Wind Chill: 71°   Ceiling: 2000
Heat Index: 71°   Visibility: 10mi
Dew Point: 62°   Wind: 3mph
Humidity: 74%   Direction: 140°SE
Pressure: 29.95"   Gusts: NA
Location:  33.76°N, 117.98°W
Report Text: KSLI 201758Z 14003KT 10SM OVC020 21/17 A2995 RMK AO2A SLP145 T02140166 10214 20156 51012
Loading
Personal Weather Stations






























Interactive Weather Map
Tropical Storm Tracking
New forecast layout! Learn more

10-Day Weather Forecast

Advertisements
Track Severe Weather on mobile